sensor_id;sensor_type;location;lat;lon;timestamp;pressure;altitude;pressure_sealevel;temperature;humidity
15932;BME280;8065;49.520;11.284;2023-06-14T00:02:03;97103.22;;;19.94;53.81
15932;BME280;8065;49.520;11.284;2023-06-14T00:04:33;97098.19;;;20.00;54.30
15932;BME280;8065;49.520;11.284;2023-06-14T00:07:00;97091.31;;;19.91;54.28
15932;BME280;8065;49.520;11.284;2023-06-14T00:09:27;97090.53;;;19.87;54.22
15932;BME280;8065;49.520;11.284;2023-06-14T00:11:54;97089.72;;;19.94;54.42
15932;BME280;8065;49.520;11.284;2023-06-14T00:14:20;97091.31;;;19.84;54.53
15932;BME280;8065;49.520;11.284;2023-06-14T00:16:47;97092.88;;;19.64;55.03
15932;BME280;8065;49.520;11.284;2023-06-14T00:19:13;97082.88;;;19.61;55.00
15932;BME280;8065;49.520;11.284;2023-06-14T00:21:41;97092.84;;;19.50;55.39
15932;BME280;8065;49.520;11.284;2023-06-14T00:24:08;97094.38;;;19.44;55.45
15932;BME280;8065;49.520;11.284;2023-06-14T00:26:36;97085.91;;;19.35;55.41
15932;BME280;8065;49.520;11.284;2023-06-14T00:29:02;97083.59;;;19.44;55.20
15932;BME280;8065;49.520;11.284;2023-06-14T00:31:29;97070.91;;;19.48;54.86
15932;BME280;8065;49.520;11.284;2023-06-14T00:33:55;97080.91;;;19.47;54.63
15932;BME280;8065;49.520;11.284;2023-06-14T00:36:22;97083.59;;;19.44;54.83
15932;BME280;8065;49.520;11.284;2023-06-14T00:38:48;97079.38;;;19.28;55.08
15932;BME280;8065;49.520;11.284;2023-06-14T00:41:15;97075.91;;;19.31;55.13
15932;BME280;8065;49.520;11.284;2023-06-14T00:43:43;97083.97;;;19.03;55.96
15932;BME280;8065;49.520;11.284;2023-06-14T00:46:09;97086.28;;;18.94;56.23
15932;BME280;8065;49.520;11.284;2023-06-14T00:48:36;97088.94;;;18.80;56.49
15932;BME280;8065;49.520;11.284;2023-06-14T00:51:03;97082.81;;;18.97;56.28
15932;BME280;8065;49.520;11.284;2023-06-14T00:53:30;97082.78;;;18.86;56.38
15932;BME280;8065;49.520;11.284;2023-06-14T00:55:59;97085.84;;;18.74;56.66
15932;BME280;8065;49.520;11.284;2023-06-14T00:58:26;97091.28;;;18.92;56.18
15932;BME280;8065;49.520;11.284;2023-06-14T01:00:54;97082.81;;;18.93;56.03
15932;BME280;8065;49.520;11.284;2023-06-14T01:03:21;97092.00;;;18.82;56.37
15932;BME280;8065;49.520;11.284;2023-06-14T01:05:48;97088.56;;;18.88;56.15
15932;BME280;8065;49.520;11.284;2023-06-14T01:08:23;97087.38;;;18.79;56.83
15932;BME280;8065;49.520;11.284;2023-06-14T01:10:53;97081.22;;;18.67;56.83
15932;BME280;8065;49.520;11.284;2023-06-14T01:13:27;97085.38;;;18.58;57.31
15932;BME280;8065;49.520;11.284;2023-06-14T01:15:56;97082.63;;;18.40;57.59
15932;BME280;8065;49.520;11.284;2023-06-14T01:18:23;97082.59;;;18.33;57.57
15932;BME280;8065;49.520;11.284;2023-06-14T01:20:51;97079.53;;;18.38;57.33
15932;BME280;8065;49.520;11.284;2023-06-14T01:23:22;97079.53;;;18.38;57.22
15932;BME280;8065;49.520;11.284;2023-06-14T01:25:49;97081.81;;;18.36;57.36
15932;BME280;8065;49.520;11.284;2023-06-14T01:28:18;97084.16;;;18.41;57.11
15932;BME280;8065;49.520;11.284;2023-06-14T01:30:47;97088.72;;;18.30;57.38
15932;BME280;8065;49.520;11.284;2023-06-14T01:33:20;97081.81;;;18.32;57.27
15932;BME280;8065;49.520;11.284;2023-06-14T01:35:48;97077.97;;;18.30;57.47
15932;BME280;8065;49.520;11.284;2023-06-14T01:38:15;97082.22;;;18.42;57.00
15932;BME280;8065;49.520;11.284;2023-06-14T01:40:45;97077.16;;;18.26;57.13
15932;BME280;8065;49.520;11.284;2023-06-14T01:43:13;97081.03;;;18.28;57.67
15932;BME280;8065;49.520;11.284;2023-06-14T01:45:40;97081.47;;;18.41;57.22
15932;BME280;8065;49.520;11.284;2023-06-14T01:48:08;97076.72;;;18.10;57.94
15932;BME280;8065;49.520;11.284;2023-06-14T01:50:35;97083.22;;;18.01;58.60
15932;BME280;8065;49.520;11.284;2023-06-14T01:53:01;97085.88;;;17.94;58.80
15932;BME280;8065;49.520;11.284;2023-06-14T01:55:28;97090.53;;;18.05;58.39
15932;BME280;8065;49.520;11.284;2023-06-14T01:57:55;97086.31;;;18.04;58.66
15932;BME280;8065;49.520;11.284;2023-06-14T02:00:24;97081.63;;;17.93;58.97
15932;BME280;8065;49.520;11.284;2023-06-14T02:02:50;97087.78;;;17.94;59.05
15932;BME280;8065;49.520;11.284;2023-06-14T02:05:17;97087.72;;;17.83;59.39
15932;BME280;8065;49.520;11.284;2023-06-14T02:07:44;97087.72;;;17.83;59.37
15932;BME280;8065;49.520;11.284;2023-06-14T02:10:10;97093.13;;;17.90;59.00
15932;BME280;8065;49.520;11.284;2023-06-14T02:12:37;97090.06;;;17.92;59.09
15932;BME280;8065;49.520;11.284;2023-06-14T02:15:06;97091.59;;;17.89;59.34
15932;BME280;8065;49.520;11.284;2023-06-14T02:17:33;97084.72;;;17.95;59.20
15932;BME280;8065;49.520;11.284;2023-06-14T02:19:59;97078.59;;;17.98;59.15
15932;BME280;8065;49.520;11.284;2023-06-14T02:22:26;97086.25;;;17.96;59.11
15932;BME280;8065;49.520;11.284;2023-06-14T02:24:52;97093.16;;;17.94;59.20
15932;BME280;8065;49.520;11.284;2023-06-14T02:27:19;97090.09;;;17.95;59.44
15932;BME280;8065;49.520;11.284;2023-06-14T02:29:45;97089.31;;;17.91;59.57
15932;BME280;8065;49.520;11.284;2023-06-14T02:32:13;97096.94;;;17.86;59.43
15932;BME280;8065;49.520;11.284;2023-06-14T02:34:39;97092.16;;;17.65;59.55
15932;BME280;8065;49.520;11.284;2023-06-14T02:37:06;97103.66;;;17.62;59.32
15932;BME280;8065;49.520;11.284;2023-06-14T02:39:33;97099.66;;;17.42;60.32
15932;BME280;8065;49.520;11.284;2023-06-14T02:41:59;97094.22;;;17.34;60.51
15932;BME280;8065;49.520;11.284;2023-06-14T02:44:26;97098.09;;;17.37;60.49
15932;BME280;8065;49.520;11.284;2023-06-14T02:46:53;97092.72;;;17.37;60.30
15932;BME280;8065;49.520;11.284;2023-06-14T02:49:22;97104.97;;;17.34;60.95
15932;BME280;8065;49.520;11.284;2023-06-14T02:51:48;97100.38;;;17.31;60.42
15932;BME280;8065;49.520;11.284;2023-06-14T02:54:15;97098.06;;;17.33;60.26
15932;BME280;8065;49.520;11.284;2023-06-14T02:56:41;97107.28;;;17.32;60.70
15932;BME280;8065;49.520;11.284;2023-06-14T02:59:07;97099.97;;;17.29;60.60
15932;BME280;8065;49.520;11.284;2023-06-14T03:01:34;97099.84;;;17.15;61.26
15932;BME280;8065;49.520;11.284;2023-06-14T03:04:01;97103.38;;;16.86;62.13
15932;BME280;8065;49.520;11.284;2023-06-14T03:06:29;97102.34;;;16.97;61.84
15932;BME280;8065;49.520;11.284;2023-06-14T03:08:56;97104.69;;;17.02;61.66
15932;BME280;8065;49.520;11.284;2023-06-14T03:11:25;97101.59;;;17.00;61.93
15932;BME280;8065;49.520;11.284;2023-06-14T03:13:51;97108.47;;;16.98;61.76
15932;BME280;8065;49.520;11.284;2023-06-14T03:16:18;97109.97;;;16.92;61.87
15932;BME280;8065;49.520;11.284;2023-06-14T03:18:47;97111.97;;;17.02;61.73
15932;BME280;8065;49.520;11.284;2023-06-14T03:21:13;97118.16;;;17.06;61.54
15932;BME280;8065;49.520;11.284;2023-06-14T03:23:42;97115.41;;;16.99;62.05
15932;BME280;8065;49.520;11.284;2023-06-14T03:26:08;97107.63;;;16.90;62.12
15932;BME280;8065;49.520;11.284;2023-06-14T03:28:39;97116.94;;;17.00;61.79
15932;BME280;8065;49.520;11.284;2023-06-14T03:31:05;97116.97;;;17.03;61.82
15932;BME280;8065;49.520;11.284;2023-06-14T03:33:32;97121.84;;;16.91;62.42
15932;BME280;8065;49.520;11.284;2023-06-14T03:35:58;97126.06;;;16.92;61.99
15932;BME280;8065;49.520;11.284;2023-06-14T03:38:25;97123.38;;;16.92;62.12
15932;BME280;8065;49.520;11.284;2023-06-14T03:40:53;97130.69;;;16.95;62.48
15932;BME280;8065;49.520;11.284;2023-06-14T03:43:19;97130.31;;;16.96;62.51
15932;BME280;8065;49.520;11.284;2023-06-14T03:45:46;97132.94;;;16.89;62.70
15932;BME280;8065;49.520;11.284;2023-06-14T03:48:12;97138.41;;;17.00;62.36
15932;BME280;8065;49.520;11.284;2023-06-14T03:50:39;97144.94;;;16.99;62.66
15932;BME280;8065;49.520;11.284;2023-06-14T03:53:05;97142.66;;;17.01;62.31
15932;BME280;8065;49.520;11.284;2023-06-14T03:55:32;97150.28;;;16.99;62.83
15932;BME280;8065;49.520;11.284;2023-06-14T03:58:00;97150.34;;;16.69;63.91
15932;BME280;8065;49.520;11.284;2023-06-14T04:00:27;97148.91;;;16.79;63.80
15932;BME280;8065;49.520;11.284;2023-06-14T04:02:53;97153.69;;;16.92;63.26
15932;BME280;8065;49.520;11.284;2023-06-14T04:05:21;97157.47;;;16.88;63.42
15932;BME280;8065;49.520;11.284;2023-06-14T04:07:51;97155.25;;;16.97;63.34
15932;BME280;8065;49.520;11.284;2023-06-14T04:10:20;97155.25;;;16.97;63.57
15932;BME280;8065;49.520;11.284;2023-06-14T04:12:47;97159.97;;;17.07;63.64
15932;BME280;8065;49.520;11.284;2023-06-14T04:15:15;97155.31;;;17.00;63.44
15932;BME280;8065;49.520;11.284;2023-06-14T04:17:41;97164.56;;;17.07;63.77
15932;BME280;8065;49.520;11.284;2023-06-14T04:20:08;97162.78;;;17.18;63.85
15932;BME280;8065;49.520;11.284;2023-06-14T04:22:35;97163.13;;;17.16;64.18
15932;BME280;8065;49.520;11.284;2023-06-14T04:25:02;97164.66;;;17.14;64.28
15932;BME280;8065;49.520;11.284;2023-06-14T04:27:31;97164.34;;;17.22;64.39
15932;BME280;8065;49.520;11.284;2023-06-14T04:30:00;97168.09;;;16.81;65.80
15932;BME280;8065;49.520;11.284;2023-06-14T04:32:30;97178.47;;;17.16;65.31
15932;BME280;8065;49.520;11.284;2023-06-14T04:34:58;97167.81;;;17.23;64.80
15932;BME280;8065;49.520;11.284;2023-06-14T04:37:27;97173.94;;;17.23;65.14
15932;BME280;8065;49.520;11.284;2023-06-14T04:39:54;97179.41;;;17.30;64.96
15932;BME280;8065;49.520;11.284;2023-06-14T04:42:21;97177.66;;;17.12;66.07
15932;BME280;8065;49.520;11.284;2023-06-14T04:44:50;97176.31;;;17.28;65.93
15932;BME280;8065;49.520;11.284;2023-06-14T04:47:20;97177.41;;;17.24;66.69
15932;BME280;8065;49.520;11.284;2023-06-14T04:49:48;97177.47;;;17.31;66.43
15932;BME280;8065;49.520;11.284;2023-06-14T04:52:16;97185.59;;;17.38;66.34
15932;BME280;8065;49.520;11.284;2023-06-14T04:54:46;97187.97;;;17.47;66.73
15932;BME280;8065;49.520;11.284;2023-06-14T04:57:12;97179.50;;;17.45;67.22
15932;BME280;8065;49.520;11.284;2023-06-14T04:59:42;97186.56;;;17.60;66.35
15932;BME280;8065;49.520;11.284;2023-06-14T05:02:09;97179.00;;;17.69;66.30
15932;BME280;8065;49.520;11.284;2023-06-14T05:04:37;97178.81;;;17.51;67.36
15932;BME280;8065;49.520;11.284;2023-06-14T05:07:06;97183.63;;;17.72;67.25
15932;BME280;8065;49.520;11.284;2023-06-14T05:09:33;97189.56;;;17.95;66.42
15932;BME280;8065;49.520;11.284;2023-06-14T05:11:59;97184.00;;;18.25;65.52
15932;BME280;8065;49.520;11.284;2023-06-14T05:14:26;97188.72;;;18.46;65.07
15932;BME280;8065;49.520;11.284;2023-06-14T05:16:52;97187.66;;;18.58;65.03
15932;BME280;8065;49.520;11.284;2023-06-14T05:19:19;97182.75;;;18.74;64.56
15932;BME280;8065;49.520;11.284;2023-06-14T05:21:45;97186.53;;;18.62;65.44
15932;BME280;8065;49.520;11.284;2023-06-14T05:24:14;97194.31;;;18.82;64.40
15932;BME280;8065;49.520;11.284;2023-06-14T05:26:42;97201.28;;;18.86;64.59
15932;BME280;8065;49.520;11.284;2023-06-14T05:29:08;97197.69;;;18.64;64.22
15932;BME280;8065;49.520;11.284;2023-06-14T05:31:35;97196.25;;;18.16;66.36
15932;BME280;8065;49.520;11.284;2023-06-14T05:34:01;97196.34;;;18.33;65.83
15932;BME280;8065;49.520;11.284;2023-06-14T05:36:28;97200.72;;;18.59;65.32
15932;BME280;8065;49.520;11.284;2023-06-14T05:38:54;97209.06;;;18.40;65.69
15932;BME280;8065;49.520;11.284;2023-06-14T05:41:24;97206.66;;;18.90;64.38
15932;BME280;8065;49.520;11.284;2023-06-14T05:43:51;97213.16;;;18.82;64.48
15932;BME280;8065;49.520;11.284;2023-06-14T05:46:17;97214.34;;;18.88;63.66
15932;BME280;8065;49.520;11.284;2023-06-14T05:48:47;97203.66;;;19.16;64.17
15932;BME280;8065;49.520;11.284;2023-06-14T05:51:13;97212.88;;;19.01;64.08
15932;BME280;8065;49.520;11.284;2023-06-14T05:53:41;97219.09;;;19.33;63.14
15932;BME280;8065;49.520;11.284;2023-06-14T05:56:07;97212.09;;;19.11;63.11
15932;BME280;8065;49.520;11.284;2023-06-14T05:58:35;97215.16;;;18.99;63.87
15932;BME280;8065;49.520;11.284;2023-06-14T06:01:01;97216.78;;;19.28;63.21
15932;BME280;8065;49.520;11.284;2023-06-14T06:03:28;97225.97;;;19.13;63.65
15932;BME280;8065;49.520;11.284;2023-06-14T06:05:55;97221.41;;;19.35;63.71
15932;BME280;8065;49.520;11.284;2023-06-14T06:08:21;97225.28;;;19.41;63.32
15932;BME280;8065;49.520;11.284;2023-06-14T06:10:48;97210.66;;;19.46;63.71
15932;BME280;8065;49.520;11.284;2023-06-14T06:13:14;97220.75;;;19.63;62.72
15932;BME280;8065;49.520;11.284;2023-06-14T06:15:43;97214.97;;;19.82;62.33
15932;BME280;8065;49.520;11.284;2023-06-14T06:18:09;97222.28;;;20.00;61.68
15932;BME280;8065;49.520;11.284;2023-06-14T06:20:36;97229.22;;;20.08;61.26
15932;BME280;8065;49.520;11.284;2023-06-14T06:23:02;97226.91;;;20.10;61.01
15932;BME280;8065;49.520;11.284;2023-06-14T06:25:28;97226.53;;;20.15;60.51
15932;BME280;8065;49.520;11.284;2023-06-14T06:27:57;97233.47;;;20.16;61.32
15932;BME280;8065;49.520;11.284;2023-06-14T06:30:24;97221.91;;;20.08;60.58
15932;BME280;8065;49.520;11.284;2023-06-14T06:32:52;97233.06;;;20.00;60.92
15932;BME280;8065;49.520;11.284;2023-06-14T06:35:20;97235.38;;;20.12;60.71
15932;BME280;8065;49.520;11.284;2023-06-14T06:37:47;97238.47;;;20.35;60.54
15932;BME280;8065;49.520;11.284;2023-06-14T06:40:13;97233.84;;;20.46;60.03
15932;BME280;8065;49.520;11.284;2023-06-14T06:42:40;97242.31;;;20.55;60.11
15932;BME280;8065;49.520;11.284;2023-06-14T06:45:07;97248.47;;;20.59;59.33
15932;BME280;8065;49.520;11.284;2023-06-14T06:47:33;97240.78;;;20.54;59.84
15932;BME280;8065;49.520;11.284;2023-06-14T06:50:01;97247.72;;;20.59;59.67
15932;BME280;8065;49.520;11.284;2023-06-14T06:52:28;97250.69;;;20.86;58.62
15932;BME280;8065;49.520;11.284;2023-06-14T06:54:55;97251.53;;;20.76;59.08
15932;BME280;8065;49.520;11.284;2023-06-14T06:57:22;97256.06;;;21.04;58.29
15932;BME280;8065;49.520;11.284;2023-06-14T06:59:48;97237.47;;;21.23;57.96
15932;BME280;8065;49.520;11.284;2023-06-14T07:02:16;97245.06;;;21.50;56.66
15932;BME280;8065;49.520;11.284;2023-06-14T07:04:42;97259.34;;;21.50;56.57
15932;BME280;8065;49.520;11.284;2023-06-14T07:07:10;97255.09;;;21.53;56.35
15932;BME280;8065;49.520;11.284;2023-06-14T07:09:36;97256.00;;;21.21;56.54
15932;BME280;8065;49.520;11.284;2023-06-14T07:12:04;97261.81;;;21.09;57.57
15932;BME280;8065;49.520;11.284;2023-06-14T07:14:31;97257.88;;;21.39;57.00
15932;BME280;8065;49.520;11.284;2023-06-14T07:16:57;97259.34;;;21.54;56.71
15932;BME280;8065;49.520;11.284;2023-06-14T07:19:23;97249.63;;;21.60;56.16
15932;BME280;8065;49.520;11.284;2023-06-14T07:21:50;97248.47;;;21.61;55.89
15932;BME280;8065;49.520;11.284;2023-06-14T07:24:18;97249.34;;;21.99;56.30
15932;BME280;8065;49.520;11.284;2023-06-14T07:26:46;97254.22;;;21.67;55.66
15932;BME280;8065;49.520;11.284;2023-06-14T07:29:13;97258.69;;;21.91;55.61
15932;BME280;8065;49.520;11.284;2023-06-14T07:31:39;97254.72;;;22.10;55.21
15932;BME280;8065;49.520;11.284;2023-06-14T07:34:06;97263.06;;;22.30;55.07
15932;BME280;8065;49.520;11.284;2023-06-14T07:36:32;97256.75;;;22.43;55.09
15932;BME280;8065;49.520;11.284;2023-06-14T07:38:59;97263.88;;;22.64;54.37
15932;BME280;8065;49.520;11.284;2023-06-14T07:41:29;97266.69;;;22.53;54.79
15932;BME280;8065;49.520;11.284;2023-06-14T07:43:56;97261.63;;;22.14;55.13
15932;BME280;8065;49.520;11.284;2023-06-14T07:46:22;97263.09;;;22.26;54.90
15932;BME280;8065;49.520;11.284;2023-06-14T07:48:49;97267.94;;;21.93;55.23
15932;BME280;8065;49.520;11.284;2023-06-14T07:51:15;97266.53;;;21.75;55.50
15932;BME280;8065;49.520;11.284;2023-06-14T07:53:42;97271.78;;;22.00;55.47
15932;BME280;8065;49.520;11.284;2023-06-14T07:56:08;97271.00;;;22.03;54.89
15932;BME280;8065;49.520;11.284;2023-06-14T07:58:36;97270.22;;;22.06;55.12
15932;BME280;8065;49.520;11.284;2023-06-14T08:01:03;97268.88;;;22.69;53.54
15932;BME280;8065;49.520;11.284;2023-06-14T08:03:31;97278.38;;;22.88;51.60
15932;BME280;8065;49.520;11.284;2023-06-14T08:05:58;97275.50;;;23.02;50.66
15932;BME280;8065;49.520;11.284;2023-06-14T08:08:24;97281.19;;;22.74;51.60
15932;BME280;8065;49.520;11.284;2023-06-14T08:10:51;97278.63;;;23.01;50.94
15932;BME280;8065;49.520;11.284;2023-06-14T08:13:17;97271.75;;;22.93;51.28
15932;BME280;8065;49.520;11.284;2023-06-14T08:15:45;97285.38;;;23.50;50.13
15932;BME280;8065;49.520;11.284;2023-06-14T08:18:12;97272.47;;;23.61;49.95
15932;BME280;8065;49.520;11.284;2023-06-14T08:20:38;97278.00;;;23.54;49.70
15932;BME280;8065;49.520;11.284;2023-06-14T08:23:05;97283.59;;;23.40;50.28
15932;BME280;8065;49.520;11.284;2023-06-14T08:25:32;97282.34;;;23.44;49.59
15932;BME280;8065;49.520;11.284;2023-06-14T08:27:58;97282.19;;;23.85;47.95
15932;BME280;8065;49.520;11.284;2023-06-14T08:30:25;97282.44;;;23.68;47.97
15932;BME280;8065;49.520;11.284;2023-06-14T08:32:52;97276.00;;;24.12;47.40
15932;BME280;8065;49.520;11.284;2023-06-14T08:35:20;97283.84;;;23.79;47.47
15932;BME280;8065;49.520;11.284;2023-06-14T08:37:47;97283.13;;;23.75;47.57
15932;BME280;8065;49.520;11.284;2023-06-14T08:40:18;97279.50;;;23.85;46.90
15932;BME280;8065;49.520;11.284;2023-06-14T08:42:48;97282.59;;;24.11;47.21
15932;BME280;8065;49.520;11.284;2023-06-14T08:45:16;97281.09;;;24.33;46.86
15932;BME280;8065;49.520;11.284;2023-06-14T08:47:43;97282.72;;;24.27;47.89
15932;BME280;8065;49.520;11.284;2023-06-14T08:50:12;97281.66;;;24.68;47.08
15932;BME280;8065;49.520;11.284;2023-06-14T08:52:44;97282.09;;;24.86;45.73
15932;BME280;8065;49.520;11.284;2023-06-14T08:55:15;97289.41;;;25.12;45.87
15932;BME280;8065;49.520;11.284;2023-06-14T08:57:46;97285.34;;;25.01;45.45
15932;BME280;8065;49.520;11.284;2023-06-14T09:00:13;97301.28;;;24.56;46.36
15932;BME280;8065;49.520;11.284;2023-06-14T09:02:40;97287.34;;;24.54;45.67
15932;BME280;8065;49.520;11.284;2023-06-14T09:05:08;97288.84;;;25.01;45.04
15932;BME280;8065;49.520;11.284;2023-06-14T09:07:37;97286.88;;;25.22;45.21
15932;BME280;8065;49.520;11.284;2023-06-14T09:10:08;97288.50;;;24.99;46.26
15932;BME280;8065;49.520;11.284;2023-06-14T09:12:35;97289.59;;;24.35;46.79
15932;BME280;8065;49.520;11.284;2023-06-14T09:15:01;97287.09;;;24.68;47.50
15932;BME280;8065;49.520;11.284;2023-06-14T09:17:32;97299.25;;;24.83;46.50
15932;BME280;8065;49.520;11.284;2023-06-14T09:20:00;97286.41;;;24.64;46.42
15932;BME280;8065;49.520;11.284;2023-06-14T09:22:29;97294.38;;;24.94;46.05
15932;BME280;8065;49.520;11.284;2023-06-14T09:24:57;97287.97;;;24.84;46.19
15932;BME280;8065;49.520;11.284;2023-06-14T09:27:25;97292.28;;;24.82;46.18
15932;BME280;8065;49.520;11.284;2023-06-14T09:29:51;97289.22;;;24.80;45.40
15932;BME280;8065;49.520;11.284;2023-06-14T09:32:18;97300.22;;;24.73;44.78
15932;BME280;8065;49.520;11.284;2023-06-14T09:34:45;97296.19;;;24.81;45.03
15932;BME280;8065;49.520;11.284;2023-06-14T09:37:11;97297.84;;;24.98;44.71
15932;BME280;8065;49.520;11.284;2023-06-14T09:39:49;97301.34;;;24.52;45.24
15932;BME280;8065;49.520;11.284;2023-06-14T09:42:18;97299.84;;;24.71;44.69
15932;BME280;8065;49.520;11.284;2023-06-14T09:44:47;97299.72;;;25.01;43.43
15932;BME280;8065;49.520;11.284;2023-06-14T09:47:15;97288.25;;;24.90;44.48
15932;BME280;8065;49.520;11.284;2023-06-14T09:49:41;97289.06;;;25.10;44.35
15932;BME280;8065;49.520;11.284;2023-06-14T09:52:10;97276.66;;;25.09;43.80
15932;BME280;8065;49.520;11.284;2023-06-14T09:54:40;97284.50;;;25.24;43.68
15932;BME280;8065;49.520;11.284;2023-06-14T09:57:08;97288.66;;;25.48;45.06
15932;BME280;8065;49.520;11.284;2023-06-14T09:59:40;97282.34;;;25.35;45.03
15932;BME280;8065;49.520;11.284;2023-06-14T10:02:14;97274.91;;;25.75;44.69
15932;BME280;8065;49.520;11.284;2023-06-14T10:04:46;97278.66;;;26.13;44.23
15932;BME280;8065;49.520;11.284;2023-06-14T10:07:14;97277.53;;;26.11;41.98
15932;BME280;8065;49.520;11.284;2023-06-14T10:09:45;97282.50;;;26.00;42.56
15932;BME280;8065;49.520;11.284;2023-06-14T10:12:16;97281.34;;;25.65;44.33
15932;BME280;8065;49.520;11.284;2023-06-14T10:14:48;97284.00;;;25.68;44.36
15932;BME280;8065;49.520;11.284;2023-06-14T10:17:22;97285.78;;;25.55;44.21
15932;BME280;8065;49.520;11.284;2023-06-14T10:19:54;97284.53;;;25.79;44.55
15932;BME280;8065;49.520;11.284;2023-06-14T10:22:26;97293.72;;;25.86;44.47
15932;BME280;8065;49.520;11.284;2023-06-14T10:24:55;97289.63;;;25.77;44.11
15932;BME280;8065;49.520;11.284;2023-06-14T10:27:22;97291.16;;;25.78;43.92
15932;BME280;8065;49.520;11.284;2023-06-14T10:30:06;97286.84;;;25.61;44.10
15932;BME280;8065;49.520;11.284;2023-06-14T10:32:33;97285.59;;;25.46;43.40
15932;BME280;8065;49.520;11.284;2023-06-14T10:35:01;97285.59;;;25.46;43.77
15932;BME280;8065;49.520;11.284;2023-06-14T10:37:28;97290.34;;;25.42;43.92
15932;BME280;8065;49.520;11.284;2023-06-14T10:39:54;97294.09;;;25.48;44.20
15932;BME280;8065;49.520;11.284;2023-06-14T10:42:21;97296.03;;;25.11;44.37
15932;BME280;8065;49.520;11.284;2023-06-14T10:44:51;97296.69;;;24.96;44.53
15932;BME280;8065;49.520;11.284;2023-06-14T10:47:24;97295.03;;;25.41;44.60
15932;BME280;8065;49.520;11.284;2023-06-14T10:49:52;97282.13;;;25.26;44.53
15932;BME280;8065;49.520;11.284;2023-06-14T10:52:22;97288.09;;;25.76;43.96
15932;BME280;8065;49.520;11.284;2023-06-14T10:57:42;97277.22;;;26.41;43.15
15932;BME280;8065;49.520;11.284;2023-06-14T11:00:11;97274.91;;;25.75;42.20
15932;BME280;8065;49.520;11.284;2023-06-14T11:03:26;97275.66;;;26.08;42.13
15932;BME280;8065;49.520;11.284;2023-06-14T11:05:58;97273.50;;;26.35;42.06
15932;BME280;8065;49.520;11.284;2023-06-14T11:08:56;97273.81;;;26.21;41.54
15932;BME280;8065;49.520;11.284;2023-06-14T11:11:31;97279.00;;;25.83;42.75
15932;BME280;8065;49.520;11.284;2023-06-14T11:13:59;97272.69;;;26.02;42.79
15932;BME280;8065;49.520;11.284;2023-06-14T11:16:26;97269.19;;;26.02;43.52
15932;BME280;8065;49.520;11.284;2023-06-14T11:18:55;97269.56;;;26.36;43.60
15932;BME280;8065;49.520;11.284;2023-06-14T11:21:21;97267.84;;;26.59;40.78
15932;BME280;8065;49.520;11.284;2023-06-14T11:23:50;97266.16;;;26.32;39.10
15932;BME280;8065;49.520;11.284;2023-06-14T11:26:24;97269.84;;;26.71;39.16
15932;BME280;8065;49.520;11.284;2023-06-14T11:28:55;97266.03;;;26.68;38.56
15932;BME280;8065;49.520;11.284;2023-06-14T11:31:21;97262.28;;;26.62;39.54
15932;BME280;8065;49.520;11.284;2023-06-14T11:33:49;97272.78;;;27.22;37.70
15932;BME280;8065;49.520;11.284;2023-06-14T11:36:17;97260.03;;;27.31;37.94
15932;BME280;8065;49.520;11.284;2023-06-14T11:38:43;97259.84;;;27.51;37.92
15932;BME280;8065;49.520;11.284;2023-06-14T11:41:10;97257.34;;;27.95;38.58
15932;BME280;8065;49.520;11.284;2023-06-14T11:43:36;97266.19;;;27.86;40.15
15932;BME280;8065;49.520;11.284;2023-06-14T11:46:03;97264.31;;;28.08;39.38
15932;BME280;8065;49.520;11.284;2023-06-14T11:48:37;97252.72;;;28.17;39.48
15932;BME280;8065;49.520;11.284;2023-06-14T11:51:04;97264.44;;;28.05;39.12
15932;BME280;8065;49.520;11.284;2023-06-14T11:53:32;97260.81;;;27.57;38.61
15932;BME280;8065;49.520;11.284;2023-06-14T11:55:59;97253.09;;;27.68;39.32
15932;BME280;8065;49.520;11.284;2023-06-14T11:58:26;97255.91;;;27.78;39.97
15932;BME280;8065;49.520;11.284;2023-06-14T12:00:53;97260.63;;;27.90;39.17
15932;BME280;8065;49.520;11.284;2023-06-14T12:03:22;97247.41;;;27.75;39.00
15932;BME280;8065;49.520;11.284;2023-06-14T12:05:50;97254.34;;;28.40;39.87
15932;BME280;8065;49.520;11.284;2023-06-14T12:08:16;97257.72;;;28.44;38.56
15932;BME280;8065;49.520;11.284;2023-06-14T12:10:45;97252.72;;;28.17;38.55
15932;BME280;8065;49.520;11.284;2023-06-14T12:13:12;97257.91;;;27.64;39.00
15932;BME280;8065;49.520;11.284;2023-06-14T12:15:39;97255.56;;;27.50;39.27
15932;BME280;8065;49.520;11.284;2023-06-14T12:18:06;97244.50;;;27.28;39.60
15932;BME280;8065;49.520;11.284;2023-06-14T12:20:33;97253.16;;;27.52;39.19
15932;BME280;8065;49.520;11.284;2023-06-14T12:23:03;97257.72;;;27.30;39.69
15932;BME280;8065;49.520;11.284;2023-06-14T12:25:31;97255.88;;;27.39;40.54
15932;BME280;8065;49.520;11.284;2023-06-14T12:28:00;97252.25;;;27.30;39.07
15932;BME280;8065;49.520;11.284;2023-06-14T12:30:29;97263.09;;;27.33;39.75
15932;BME280;8065;49.520;11.284;2023-06-14T12:32:56;97243.44;;;27.51;39.04
15932;BME280;8065;49.520;11.284;2023-06-14T12:35:22;97252.06;;;27.37;39.90
15932;BME280;8065;49.520;11.284;2023-06-14T12:37:49;97254.28;;;27.93;38.73
15932;BME280;8065;49.520;11.284;2023-06-14T12:40:15;97252.06;;;28.13;38.77
15932;BME280;8065;49.520;11.284;2023-06-14T12:42:42;97256.81;;;27.62;38.80
15932;BME280;8065;49.520;11.284;2023-06-14T12:45:10;97260.81;;;27.57;38.73
15932;BME280;8065;49.520;11.284;2023-06-14T12:47:36;97258.13;;;27.16;39.15
15932;BME280;8065;49.520;11.284;2023-06-14T12:50:04;97257.25;;;27.73;39.03
15932;BME280;8065;49.520;11.284;2023-06-14T12:52:30;97259.59;;;27.33;39.07
15932;BME280;8065;49.520;11.284;2023-06-14T12:54:57;97261.13;;;27.34;39.38
15932;BME280;8065;49.520;11.284;2023-06-14T12:57:23;97263.69;;;27.12;40.55
15932;BME280;8065;49.520;11.284;2023-06-14T12:59:50;97267.44;;;27.31;39.87
15932;BME280;8065;49.520;11.284;2023-06-14T13:02:19;97261.84;;;27.22;38.94
15932;BME280;8065;49.520;11.284;2023-06-14T13:04:47;97264.19;;;27.36;40.44
15932;BME280;8065;49.520;11.284;2023-06-14T13:07:14;97273.44;;;27.26;39.93